Latest Weather Observations for Cobar Airport

IDN60801

Issued at 11:05 pm EST Thursday 24 April 2014 (issued every 30 minutes, with the page automatically refreshed every 10 minutes)

About weather observations | Map of weather stations | Latest weather observations for NSW | Other Formats
Station Details ID: 048237 Name: COBAR AIRPORT AWS Lat: -31.54 Lon: 145.80 Height: 218.0 m
Data from the previous 72 hours. | See also: Recent months for locations in New South Wales
Date/Time
EST
Temp
°C
App
Temp
°C
Dew
Point
Rel
Hum
%
Delta-T
°C
Wind Press
QNH
hPa
Press
MSL
hPa
Rain
since 9 am
mm
Dir
 
Spd
km/h
Gust
km/h
Spd
kts
Gust
kts
24/11:00pm 16.6 14.4 7.8 56 4.5 SSE 9 11 5 6 1016.9 1016.4 0.0
24/10:30pm 15.5 13.1 6.8 56 4.3 S 9 11 5 6 1017.0 - 0.0
24/10:00pm 16.6 15.3 7.5 55 4.6 S 4 9 2 5 1017.0 1016.5 0.0
24/09:30pm 17.4 15.5 6.9 50 5.3 S 6 7 3 4 1017.0 - 0.0
24/09:00pm 18.7 16.4 7.5 48 5.7 S 9 11 5 6 1016.6 1016.1 0.0
24/08:30pm 19.5 16.9 7.6 46 6.1 S 11 13 6 7 1016.3 - 0.0
24/08:00pm 20.8 17.8 7.8 43 6.8 S 13 15 7 8 1015.9 1015.3 0.0
24/07:30pm 21.4 18.5 8.0 42 7.1 S 13 17 7 9 1015.4 - 0.0
24/07:00pm 22.0 18.7 8.2 41 7.3 S 15 17 8 9 1014.9 1014.3 0.0
24/06:30pm 23.5 19.8 8.0 37 8.3 S 17 22 9 12 1014.4 - 0.0
24/06:00pm 24.1 20.3 7.7 35 8.7 S 17 20 9 11 1013.9 1013.4 0.0
24/05:30pm 25.8 21.6 7.4 31 9.8 S 19 26 10 14 1013.4 - 0.0
24/05:00pm 26.9 23.1 7.4 29 10.5 S 17 24 9 13 1013.2 1012.7 0.0
24/04:30pm 27.6 23.5 6.4 26 11.2 S 17 22 9 12 1013.0 - 0.0
24/04:00pm 27.9 23.9 6.6 26 11.4 SSW 17 24 9 13 1013.1 1012.6 0.0
24/03:30pm 28.1 24.3 5.6 24 11.8 S 15 22 8 12 1013.1 - 0.0
24/03:00pm 27.8 24.1 4.2 22 12.1 S 13 22 7 12 1013.1 1012.6 0.0
24/02:30pm 27.9 23.9 4.9 23 11.9 SSW 15 22 8 12 1013.3 - 0.0
24/02:00pm 27.9 23.5 4.9 23 11.9 SSW 17 24 9 13 1013.4 1012.9 0.0
24/01:30pm 28.0 23.4 3.7 21 12.3 S 17 24 9 13 1013.6 - 0.0
24/01:00pm 27.9 22.8 2.9 20 12.5 SW 19 24 10 13 1013.9 1013.4 0.0
24/12:30pm 27.3 22.1 3.7 22 11.9 SSW 20 30 11 16 1014.2 - 0.0
24/12:00pm 27.4 22.7 3.2 21 12.1 SSW 17 30 9 16 1014.8 1014.2 0.0
24/11:30am 27.2 23.4 3.7 22 11.9 SW 13 22 7 12 1015.0 - 0.0
24/11:00am 25.7 22.3 4.2 25 10.8 WSW 11 17 6 9 1015.5 1014.9 0.0
24/10:30am 24.5 21.1 3.8 26 10.3 WSW 11 15 6 8 1015.7 - 0.0
24/10:00am 22.9 20.7 3.4 28 9.5 SW 4 9 2 5 1015.7 1015.1 0.0
24/09:30am 20.8 17.7 3.5 32 8.3 SSW 9 13 5 7 1015.9 - 0.0
24/09:00am 19.0 16.2 3.2 35 7.5 SSW 7 9 4 5 1015.9 1015.3 0.0
24/08:30am 18.4 16.0 4.2 39 6.8 SW 6 9 3 5 1015.6 - 0.0
24/08:00am 15.5 13.6 4.8 49 5.1 S 4 9 2 5 1015.2 1014.6 0.0
24/07:30am 12.6 11.0 4.6 58 3.7 SSW 2 7 1 4 1014.8 - 0.0
24/07:00am 11.0 9.7 4.2 63 3.1 CALM 0 0 0 0 1014.4 1013.9 0.0
24/06:30am 11.0 9.6 3.3 59 3.4 CALM 0 0 0 0 1014.0 - 0.0
24/06:00am 12.2 9.5 3.9 57 3.8 NE 7 7 4 4 1013.9 1013.4 0.0
24/05:30am 12.8 10.1 3.5 53 4.2 NE 7 9 4 5 1013.8 - 0.0
24/05:00am 14.7 11.6 3.5 47 5.1 NE 9 13 5 7 1013.5 1013.0 0.0
24/04:30am 15.3 12.6 3.8 46 5.3 ENE 7 9 4 5 1013.3 - 0.0
24/04:00am 16.2 13.0 2.9 41 6.1 NE 9 15 5 8 1013.3 1012.8 0.0
24/03:30am 16.5 13.4 3.6 42 6.0 NE 9 13 5 7 1013.4 - 0.0
24/03:00am 16.3 12.8 3.4 42 6.0 NE 11 15 6 8 1013.5 1013.0 0.0
24/02:30am 17.2 13.3 3.5 40 6.4 ENE 13 20 7 11 1013.3 - 0.0
24/02:00am 17.4 13.2 4.0 41 6.4 ENE 15 19 8 10 1013.6 1013.1 0.0
24/01:30am 16.4 12.7 4.4 45 5.7 ENE 13 17 7 9 1014.1 - 0.0
24/01:00am 16.4 12.8 4.8 46 5.5 ENE 13 15 7 8 1014.4 1013.9 0.0
24/12:30am 16.5 12.8 4.5 45 5.7 ENE 13 15 7 8 1014.7 - 0.0
24/12:00am 16.8 13.1 4.5 44 5.9 ENE 13 15 7 8 1014.8 1014.2 0.0
 
Date/Time
EST
Temp
°C
App
Temp
°C
Dew
Point
Rel
Hum
%
Delta-T
°C
Wind Press
QNH
hPa
Press
MSL
hPa
Rain
since 9 am
mm
Dir
 
Spd
km/h
Gust
km/h
Spd
kts
Gust
kts
23/11:30pm 17.3 14.0 4.6 43 6.1 ENE 11 15 6 8 1015.0 - 0.0
23/11:00pm 17.6 13.9 4.5 42 6.3 ENE 13 15 7 8 1015.0 1014.4 0.0
23/10:30pm 17.8 14.6 5.1 43 6.2 NE 11 13 6 7 1015.2 - 0.0
23/10:00pm 17.4 14.5 4.7 43 6.1 ENE 9 11 5 6 1015.2 1014.6 0.0
23/09:30pm 18.1 15.2 4.7 41 6.5 ENE 9 9 5 5 1015.1 - 0.0
23/09:00pm 17.2 14.2 4.2 42 6.2 ENE 9 11 5 6 1015.2 1014.6 0.0
23/08:30pm 18.8 15.9 4.6 39 6.9 ENE 9 11 5 6 1015.1 - 0.0
23/08:00pm 19.4 16.9 4.7 38 7.2 ENE 7 9 4 5 1015.0 1014.4 0.0
23/07:30pm 19.1 16.6 4.8 39 7.0 ENE 7 9 4 5 1014.9 - 0.0
23/07:00pm 20.5 19.4 4.9 36 7.7 CALM 0 7 0 4 1014.8 1014.2 0.0
23/06:30pm 22.1 19.7 4.2 31 8.8 ENE 6 9 3 5 1014.7 - 0.0
23/06:00pm 25.1 22.5 4.3 26 10.5 NE 7 9 4 5 1014.4 1013.9 0.0
23/05:30pm 26.9 24.4 4.6 24 11.4 NE 7 9 4 5 1014.2 - 0.0
23/05:00pm 28.0 26.1 5.0 23 11.9 N 4 7 2 4 1014.1 1013.6 0.0
23/04:30pm 28.7 26.2 4.9 22 12.4 NNE 7 13 4 7 1014.1 - 0.0
23/04:00pm 28.6 26.1 4.8 22 12.4 NE 7 17 4 9 1014.2 1013.7 0.0
23/03:30pm 28.5 26.0 4.7 22 12.3 E 7 13 4 7 1014.2 - 0.0
23/03:00pm 28.2 25.3 4.5 22 12.2 NE 9 15 5 8 1014.4 1013.9 0.0
23/02:30pm 28.2 25.3 4.5 22 12.2 ENE 9 20 5 11 1014.7 - 0.0
23/02:00pm 28.0 25.2 5.0 23 11.9 NE 9 13 5 7 1014.8 1014.2 0.0
23/01:30pm 27.7 24.8 4.7 23 11.9 E 9 17 5 9 1015.1 - 0.0
23/01:00pm 27.1 23.8 4.8 24 11.5 NE 11 20 6 11 1015.6 1015.0 0.0
23/12:30pm 27.1 24.9 5.4 25 11.3 NNW 6 17 3 9 1016.1 - 0.0
23/12:00pm 26.8 23.4 5.7 26 11.0 N 13 20 7 11 1016.7 1016.2 0.0
23/11:30am 25.7 22.3 5.8 28 10.3 NNE 13 19 7 10 1017.2 - 0.0
23/11:00am 24.9 20.7 5.7 29 9.9 NNE 17 20 9 11 1017.6 1017.1 0.0
23/10:30am 23.8 20.0 5.7 31 9.3 NE 15 20 8 11 1017.7 - 0.0
23/10:00am 22.6 17.9 5.1 32 8.8 NE 19 22 10 12 1017.9 1017.4 0.0
23/09:30am 21.6 17.2 4.7 33 8.4 NNE 17 24 9 13 1018.0 - 0.0
23/09:00am 20.9 16.8 4.5 34 8.0 NE 15 20 8 11 1018.0 1017.5 0.0
23/08:30am 19.4 15.9 5.5 40 6.9 NE 13 17 7 9 1018.0 - 0.0
23/08:00am 16.5 12.9 4.9 46 5.6 NE 13 17 7 9 1017.7 1017.2 0.0
23/07:30am 14.3 10.6 4.6 52 4.5 NE 13 17 7 9 1017.5 - 0.0
23/07:00am 12.9 9.2 4.3 56 4.0 ENE 13 17 7 9 1017.5 1017.0 0.0
23/06:30am 12.8 9.0 4.0 55 4.0 ENE 13 17 7 9 1017.4 - 0.0
23/06:00am 13.1 9.4 4.3 55 4.1 ENE 13 17 7 9 1017.2 1016.7 0.0
23/05:30am 13.1 9.3 4.0 54 4.2 ENE 13 15 7 8 1017.1 - 0.0
23/05:00am 13.9 9.8 4.2 52 4.5 ENE 15 19 8 10 1016.9 1016.4 0.0
23/04:30am 13.6 9.5 4.2 53 4.3 ENE 15 17 8 9 1016.9 - 0.0
23/04:00am 13.2 9.5 4.4 55 4.1 ENE 13 15 7 8 1016.7 1016.2 0.0
23/03:30am 13.6 9.9 4.5 54 4.2 ENE 13 17 7 9 1016.6 - 0.0
23/03:00am 13.8 10.1 4.4 53 4.4 ENE 13 17 7 9 1016.7 1016.2 0.0
23/02:30am 14.1 10.4 4.4 52 4.5 ENE 13 15 7 8 1016.8 - 0.0
23/02:00am 13.9 10.3 4.8 54 4.3 ENE 13 15 7 8 1017.1 1016.6 0.0
23/01:30am 13.5 10.3 4.9 56 4.0 ENE 11 13 6 7 1017.3 - 0.0
23/01:00am 13.2 10.0 4.9 57 3.9 ENE 11 13 6 7 1017.4 1016.9 0.0
23/12:30am 12.3 9.5 5.0 61 3.4 ENE 9 11 5 6 1017.5 - 0.0
23/12:00am 13.6 10.8 5.3 57 3.9 ENE 9 9 5 5 1017.6 1017.1 0.0
 
Date/Time
EST
Temp
°C
App
Temp
°C
Dew
Point
Rel
Hum
%
Delta-T
°C
Wind Press
QNH
hPa
Press
MSL
hPa
Rain
since 9 am
mm
Dir
 
Spd
km/h
Gust
km/h
Spd
kts
Gust
kts
22/11:30pm 13.1 10.8 5.5 60 3.6 ENE 7 9 4 5 1017.8 - 0.0
22/11:00pm 13.4 11.1 5.6 59 3.7 ENE 7 9 4 5 1018.0 1017.5 0.0
22/10:30pm 13.4 12.4 5.6 59 3.7 CALM 0 0 0 0 1018.1 - 0.0
22/10:00pm 13.2 12.1 4.9 57 3.9 CALM 0 0 0 0 1018.0 1017.5 0.0
22/09:30pm 14.0 11.8 5.4 56 4.1 ENE 6 7 3 4 1017.9 - 0.0
22/09:00pm 14.4 12.1 4.7 52 4.6 ENE 6 7 3 4 1017.8 1017.3 0.0
22/08:30pm 16.4 13.5 6.5 52 4.9 ENE 11 13 6 7 1017.7 - 0.0
22/08:00pm 16.1 14.0 6.0 51 4.9 ENE 6 7 3 4 1017.5 1017.0 0.0
22/07:30pm 17.2 16.2 5.5 46 5.7 CALM 0 0 0 0 1017.5 - 0.0
22/07:00pm 18.2 16.0 5.1 42 6.4 NE 6 9 3 5 1017.2 1016.7 0.0
22/06:30pm 19.2 17.6 4.6 38 7.1 S 2 6 1 3 1017.0 - 0.0
22/06:00pm 22.2 19.9 4.7 32 8.7 S 6 7 3 4 1016.7 1016.2 0.0
22/05:30pm 24.5 23.4 5.3 29 9.8 CALM 0 0 0 0 1016.6 - 0.0
22/05:00pm 24.7 22.8 5.0 28 10.0 SW 4 6 2 3 1016.6 1016.1 0.0
22/04:30pm 24.7 22.2 5.0 28 10.0 NNW 7 11 4 6 1016.5 - 0.0
22/04:00pm 26.1 23.7 5.1 26 10.8 NNW 7 15 4 8 1016.5 1016.0 0.0
22/03:30pm 25.0 23.1 4.7 27 10.3 W 4 13 2 7 1016.6 - 0.0
22/03:00pm 25.4 23.5 5.1 27 10.4 W 4 13 2 7 1016.7 1016.2 0.0
22/02:30pm 25.1 22.3 5.3 28 10.2 W 9 15 5 8 1016.9 - 0.0
22/02:00pm 24.5 22.2 4.8 28 10.0 WNW 6 15 3 8 1017.0 1016.5 0.0
22/01:30pm 24.1 20.4 4.5 28 9.8 NW 13 19 7 10 1017.1 - 0.0
22/01:00pm 23.7 19.9 4.1 28 9.7 W 13 20 7 11 1017.6 1017.1 0.0
22/12:30pm 23.4 19.7 4.4 29 9.5 NW 13 24 7 13 1018.2 - 0.0
22/12:00pm 22.8 19.0 3.9 29 9.3 NW 13 20 7 11 1018.5 1018.0 0.0
22/11:30am 23.1 19.0 4.1 29 9.4 NNW 15 28 8 15 1019.1 - 0.0
22/11:00am 22.7 17.7 3.8 29 9.3 NW 19 28 10 15 1019.7 1019.1 0.0
22/10:30am 22.4 18.4 4.9 32 8.8 N 15 19 8 10 1019.9 - 0.0
22/10:00am 20.7 17.1 5.1 36 7.7 N 13 19 7 10 1020.0 1019.4 0.0
22/09:30am 19.2 14.8 4.9 39 7.0 NNE 17 20 9 11 1020.2 - 0.0
22/09:00am 18.0 14.1 5.2 43 6.2 NE 15 20 8 11 1020.2 1019.6 0.0
22/08:30am 16.3 12.8 5.6 49 5.2 NE 13 17 7 9 1020.1 - 0.0
22/08:00am 13.8 10.7 5.4 57 4.0 NE 11 15 6 8 1019.9 1019.3 0.0
22/07:30am 12.5 9.3 5.2 61 3.4 ENE 11 15 6 8 1019.6 - 0.0
22/07:00am 11.5 7.8 4.7 63 3.1 ENE 13 19 7 10 1018.9 1018.4 0.0
22/06:30am 11.0 7.3 4.7 65 2.9 ENE 13 17 7 9 1018.6 - 0.0
22/06:00am 10.5 6.9 4.9 68 2.6 NE 13 15 7 8 1018.5 1018.0 0.0
22/05:30am 10.6 8.1 4.5 66 2.8 NE 7 9 4 5 1018.5 - 0.0
22/05:00am 11.0 8.5 4.5 64 3.0 ENE 7 9 4 5 1018.2 1017.7 0.0
22/04:30am 11.0 8.1 4.5 64 3.0 NE 9 11 5 6 1018.1 - 0.0
22/04:00am 11.3 8.4 4.5 63 3.1 ENE 9 13 5 7 1018.1 1017.6 0.0
22/03:30am 12.0 9.1 4.7 61 3.4 ENE 9 13 5 7 1018.1 - 0.0
22/03:00am 12.0 9.1 4.7 61 3.4 ENE 9 13 5 7 1018.2 1017.7 0.0
22/02:30am 12.6 9.7 4.6 58 3.7 NE 9 13 5 7 1018.4 - 0.0
22/02:00am 13.0 9.7 4.7 57 3.9 NE 11 13 6 7 1018.8 1018.3 0.0
22/01:30am 12.9 9.6 4.8 58 3.8 ENE 11 13 6 7 1018.8 - 0.0
22/01:00am 13.7 10.8 4.8 55 4.2 ENE 9 11 5 6 1018.7 1018.2 0.0
22/12:30am 13.9 10.7 5.0 55 4.2 ENE 11 13 6 7 1019.0 - 0.0
22/12:00am 14.3 11.2 5.4 55 4.2 ENE 11 13 6 7 1019.1 1018.6 0.0
 
Date/Time
EST
Temp
°C
App
Temp
°C
Dew
Point
Rel
Hum
%
Delta-T
°C
Wind Press
QNH
hPa
Press
MSL
hPa
Rain
since 9 am
mm
Dir
 
Spd
km/h
Gust
km/h
Spd
kts
Gust
kts
21/11:30pm 14.3 10.9 5.7 56 4.1 ENE 13 15 7 8 1019.3 - 0.0

Other Formats:

Comma delimited format used in spreadsheet applications
http://www.bom.gov.au/fwo/IDN60801/IDN60801.94710.axf

JavaScript Object Notation format (JSON) in row-major order
http://www.bom.gov.au/fwo/IDN60801/IDN60801.94710.json